Time;durP1;ratioP1;P1;durP2;ratioP2;P2;SDS_P1;SDS_P2;PMS_P1;PMS_P2;Temp;Humidity;BMP_temperature;BMP_pressure;BME280_temperature;BME280_humidity;BME280_pressure;Samples;Min_cycle;Max_cycle;Signal;HPM_P1;HPM_P2
2022/04/25 00:01:39;;;;;;;16.98;4.40;;;;;;;18.12;54.22;98969.06;5111367;28;20095;-47
2022/04/25 00:04:05;;;;;;;18.65;5.00;;;;;;;18.09;54.79;98972.31;5110627;28;20043;-48
2022/04/25 00:06:31;;;;;;;20.10;5.07;;;;;;;17.82;55.57;98976.09;5111099;28;20027;-48
2022/04/25 00:08:57;;;;;;;15.77;4.80;;;;;;;18.04;55.45;98983.88;5110822;28;20027;-50
2022/04/25 00:11:22;;;;;;;18.30;4.88;;;;;;;18.14;55.32;98991.97;5111520;28;20031;-47
2022/04/25 00:13:48;;;;;;;19.90;4.95;;;;;;;18.08;55.54;98986.84;5111179;28;20034;-47
2022/04/25 00:16:13;;;;;;;19.65;4.78;;;;;;;18.07;55.87;98985.25;5111145;28;20027;-50
2022/04/25 00:18:39;;;;;;;19.27;4.82;;;;;;;18.08;55.22;98976.88;5111855;28;20443;-46
2022/04/25 00:21:05;;;;;;;13.82;4.68;;;;;;;18.07;54.98;98988.75;5111410;28;20023;-46
2022/04/25 00:23:31;;;;;;;19.38;4.82;;;;;;;18.20;55.32;98990.09;5111688;28;20016;-47
2022/04/25 00:25:56;;;;;;;19.08;5.03;;;;;;;18.21;55.03;98989.00;5111590;28;20479;-47
2022/04/25 00:28:22;;;;;;;21.27;5.43;;;;;;;18.21;55.07;98990.88;5111790;28;20027;-49
2022/04/25 00:30:48;;;;;;;20.67;4.93;;;;;;;18.09;55.50;98985.78;5111396;28;20023;-47
2022/04/25 00:33:14;;;;;;;18.25;4.88;;;;;;;17.99;55.30;98981.19;5111589;28;20099;-47
2022/04/25 00:35:40;;;;;;;20.02;4.68;;;;;;;18.05;54.77;98992.75;5111208;28;20054;-47
2022/04/25 00:38:06;;;;;;;15.48;4.07;;;;;;;18.07;54.48;98985.25;5111424;28;20047;-48
2022/04/25 00:40:31;;;;;;;18.00;4.90;;;;;;;18.03;54.22;98992.22;5112012;28;20118;-50
2022/04/25 00:42:57;;;;;;;18.88;4.75;;;;;;;17.83;55.19;98987.66;5110910;28;20055;-47
2022/04/25 00:45:22;;;;;;;17.65;4.88;;;;;;;17.81;55.23;98997.88;5111086;28;20026;-47
2022/04/25 00:47:48;;;;;;;22.55;5.28;;;;;;;17.63;55.80;98985.75;5112366;28;20364;-48
2022/04/25 00:50:14;;;;;;;10.10;4.22;;;;;;;17.53;55.70;98973.91;5115530;28;20509;-50
2022/04/25 00:52:40;;;;;;;12.90;4.53;;;;;;;17.58;55.89;98981.97;5115378;28;20031;-47
2022/04/25 00:55:07;;;;;;;12.38;5.32;;;;;;;17.40;56.29;98974.41;5115534;28;20027;-47
2022/04/25 00:57:34;;;;;;;12.98;3.90;;;;;;;17.50;56.10;98992.47;5115613;28;20034;-47
2022/04/25 01:00:00;;;;;;;13.02;3.92;;;;;;;17.26;56.57;98989.47;5115862;28;20035;-47
2022/04/25 01:02:27;;;;;;;20.88;4.38;;;;;;;17.27;57.16;98996.44;5115024;28;20035;-48
2022/04/25 01:04:54;;;;;;;15.95;4.38;;;;;;;17.29;57.00;98999.72;5115132;28;20138;-47
2022/04/25 01:07:20;;;;;;;14.27;4.43;;;;;;;17.25;57.30;98999.44;5115435;28;20450;-48
2022/04/25 01:09:45;;;;;;;14.95;4.40;;;;;;;17.25;57.32;98999.44;5115252;28;20558;-48
2022/04/25 01:12:12;;;;;;;17.08;4.32;;;;;;;17.40;56.49;98990.56;5115070;28;20011;-47
2022/04/25 01:14:37;;;;;;;11.65;3.90;;;;;;;17.32;56.51;98989.19;5114503;28;20027;-48
2022/04/25 01:17:03;;;;;;;12.00;4.13;;;;;;;17.18;56.47;98959.34;5115142;28;20015;-48
2022/04/25 01:19:29;;;;;;;14.38;4.18;;;;;;;17.26;56.66;98984.91;5115206;28;20387;-47
2022/04/25 01:21:54;;;;;;;15.48;5.00;;;;;;;17.31;55.69;98982.22;5114906;28;20081;-50
2022/04/25 01:27:17;;;;;;;16.40;4.30;;;;;;;17.10;57.33;98975.19;5115319;28;20124;-47
2022/04/25 01:29:54;;;;;;;13.32;4.18;;;;;;;17.16;57.22;98984.88;5114895;28;20032;-47
2022/04/25 01:32:23;;;;;;;15.27;4.70;;;;;;;17.08;57.04;98986.19;5115242;28;20028;-47
2022/04/25 01:34:49;;;;;;;13.10;4.53;;;;;;;16.94;57.78;98983.19;5114591;28;20047;-47
2022/04/25 01:37:18;;;;;;;21.10;4.65;;;;;;;17.03;57.25;98983.50;5115086;28;20436;-46
2022/04/25 01:39:50;;;;;;;15.50;4.55;;;;;;;17.00;57.56;98984.84;5114966;28;20028;-47
2022/04/25 01:42:16;;;;;;;14.10;4.22;;;;;;;17.08;57.05;98980.84;5114857;28;20027;-47
2022/04/25 01:44:42;;;;;;;16.90;4.88;;;;;;;17.00;56.86;98987.53;5114393;28;20151;-46
2022/04/25 01:47:08;;;;;;;14.77;4.30;;;;;;;17.04;57.63;98987.81;5114547;28;20560;-47
2022/04/25 01:49:34;;;;;;;15.32;4.80;;;;;;;17.04;57.79;98987.81;5114656;28;20046;-47
2022/04/25 01:52:27;;;;;;;20.20;5.10;;;;;;;17.08;58.43;98985.41;5114772;28;20015;-46
2022/04/25 01:54:52;;;;;;;13.77;4.80;;;;;;;17.09;57.79;98985.13;5114265;28;20042;-47
2022/04/25 01:57:18;;;;;;;13.63;4.80;;;;;;;16.88;58.15;98983.44;5114474;28;20023;-47
2022/04/25 01:59:45;;;;;;;14.68;4.78;;;;;;;16.95;58.62;98987.50;5114257;28;20027;-46
2022/04/25 02:02:11;;;;;;;15.40;4.63;;;;;;;16.96;58.50;98985.63;5114059;28;20027;-47
2022/04/25 02:04:37;;;;;;;13.63;4.47;;;;;;;17.11;58.04;98976.78;5114045;28;20612;-49
2022/04/25 02:07:04;;;;;;;18.25;5.53;;;;;;;17.01;58.39;98966.81;5114107;28;20129;-47
2022/04/25 02:09:29;;;;;;;15.63;5.03;;;;;;;17.06;58.79;98969.53;5113970;28;20084;-47
2022/04/25 02:11:55;;;;;;;16.85;4.85;;;;;;;16.99;58.70;98972.47;5113809;28;20020;-47
2022/04/25 02:14:20;;;;;;;13.70;4.95;;;;;;;16.97;59.06;98979.19;5114093;28;20023;-47
2022/04/25 02:16:46;;;;;;;14.23;4.45;;;;;;;17.03;58.70;98977.31;5114036;28;20084;-47
2022/04/25 02:19:12;;;;;;;14.30;5.10;;;;;;;17.11;58.19;98980.28;5113872;28;20028;-46
2022/04/25 02:21:38;;;;;;;20.63;4.93;;;;;;;17.14;58.62;98978.97;5114426;28;20023;-46
2022/04/25 02:24:04;;;;;;;18.10;5.20;;;;;;;17.18;58.50;98980.03;5113744;28;20022;-47
2022/04/25 02:26:29;;;;;;;15.43;5.50;;;;;;;17.03;58.26;98985.38;5112696;28;20456;-46
2022/04/25 02:28:55;;;;;;;16.67;5.30;;;;;;;16.86;58.75;98981.00;5113558;28;20027;-47
2022/04/25 02:31:21;;;;;;;24.20;5.57;;;;;;;16.92;59.38;98984.53;5113557;28;20094;-47
2022/04/25 02:33:47;;;;;;;14.40;5.07;;;;;;;16.87;59.12;98979.97;5113748;28;20031;-47
2022/04/25 02:36:13;;;;;;;21.85;5.88;;;;;;;16.92;58.57;98971.91;5113868;28;20023;-47
2022/04/25 02:38:39;;;;;;;20.45;5.75;;;;;;;17.01;59.11;98982.94;5113304;28;20382;-47
2022/04/25 02:41:05;;;;;;;21.30;6.35;;;;;;;16.97;58.78;98981.88;5113323;28;20388;-46
2022/04/25 02:43:32;;;;;;;21.23;5.90;;;;;;;16.88;58.95;98983.44;5113242;28;20028;-47
2022/04/25 02:45:57;;;;;;;19.50;5.70;;;;;;;16.97;58.69;98984.56;5113309;28;20024;-50
2022/04/25 02:48:23;;;;;;;16.42;5.75;;;;;;;16.98;59.04;98976.22;5113629;28;20020;-50
2022/04/25 02:50:48;;;;;;;17.48;5.82;;;;;;;16.89;59.27;98985.88;5112913;28;20085;-50
2022/04/25 02:53:14;;;;;;;20.45;6.32;;;;;;;16.91;59.10;98986.41;5113392;28;20088;-50
2022/04/25 02:55:40;;;;;;;22.75;5.97;;;;;;;16.76;59.84;98980.97;5113210;28;20016;-49
2022/04/25 02:58:05;;;;;;;18.63;5.60;;;;;;;16.69;60.14;98991.94;5113072;28;20015;-48
2022/04/25 03:00:30;;;;;;;23.60;5.50;;;;;;;16.75;59.20;98985.53;5112774;28;20388;-50
2022/04/25 03:02:56;;;;;;;16.88;5.72;;;;;;;16.73;59.46;98978.78;5113213;28;20027;-48
2022/04/25 03:05:21;;;;;;;18.88;5.88;;;;;;;16.78;59.46;98985.00;5112614;28;20089;-48
2022/04/25 03:07:47;;;;;;;20.50;6.00;;;;;;;16.83;59.79;98986.94;5113135;28;20084;-48
2022/04/25 03:10:13;;;;;;;21.05;5.47;;;;;;;16.76;59.62;98992.50;5112505;28;20112;-47
2022/04/25 03:12:38;;;;;;;20.50;6.15;;;;;;;16.85;59.77;98992.03;5112940;28;20493;-46
2022/04/25 03:15:04;;;;;;;18.05;6.45;;;;;;;16.70;60.16;98993.56;5112558;28;20387;-46
2022/04/25 03:17:30;;;;;;;22.25;6.38;;;;;;;16.76;60.01;98989.00;5113199;28;20103;-46
2022/04/25 03:19:55;;;;;;;24.13;5.70;;;;;;;16.67;59.70;98988.69;5113028;28;20062;-46
2022/04/25 03:22:20;;;;;;;32.17;7.00;;;;;;;16.74;60.00;98986.59;5112484;28;20114;-47
2022/04/25 03:24:46;;;;;;;24.67;6.60;;;;;;;16.73;59.92;98987.63;5112597;28;20012;-46
2022/04/25 03:27:11;;;;;;;18.33;6.13;;;;;;;16.67;59.76;98986.00;5094326;28;20027;-47
2022/04/25 03:29:37;;;;;;;26.75;6.40;;;;;;;16.54;60.88;98984.59;5112759;28;20024;-47
2022/04/25 03:32:02;;;;;;;21.98;6.30;;;;;;;16.56;60.17;98998.59;5112246;28;20603;-47
2022/04/25 03:34:28;;;;;;;25.00;6.00;;;;;;;16.65;60.93;98996.22;5112272;28;20088;-47
2022/04/25 03:36:56;;;;;;;24.15;6.90;;;;;;;16.59;60.82;98990.00;5112384;28;20020;-47
2022/04/25 03:39:21;;;;;;;18.73;5.85;;;;;;;16.58;60.36;98971.47;5112624;28;20391;-47
2022/04/25 03:41:47;;;;;;;20.40;6.45;;;;;;;16.76;59.99;98984.44;5112147;28;20035;-47
2022/04/25 03:44:13;;;;;;;24.52;6.65;;;;;;;16.73;60.42;98992.22;5111226;28;20027;-47
2022/04/25 03:46:39;;;;;;;25.75;6.82;;;;;;;16.79;59.99;98991.16;5112230;28;20042;-46
2022/04/25 03:49:04;;;;;;;17.27;7.20;;;;;;;16.45;60.48;98990.72;5112277;28;20046;-46
2022/04/25 03:51:29;;;;;;;20.13;7.13;;;;;;;16.52;61.17;98991.31;5111977;28;20019;-46
2022/04/25 03:53:55;;;;;;;19.27;7.03;;;;;;;16.56;61.05;98992.41;5111472;28;20043;-46
2022/04/25 03:59:05;;;;;;;19.52;7.40;;;;;;;16.78;60.02;98995.72;5112552;28;20080;-47
2022/04/25 04:01:32;;;;;;;21.75;7.03;;;;;;;16.84;59.74;98987.72;5111946;28;20114;-47
2022/04/25 04:04:04;;;;;;;16.15;6.57;;;;;;;16.75;60.48;98993.59;5111487;28;20427;-46
2022/04/25 04:06:30;;;;;;;22.63;7.18;;;;;;;16.83;60.25;98981.56;5112076;28;20432;-45
2022/04/25 04:08:55;;;;;;;17.80;6.57;;;;;;;17.06;59.88;98980.28;5112085;28;20472;-46
2022/04/25 04:11:21;;;;;;;20.35;7.00;;;;;;;17.35;59.12;98995.94;5112029;28;20027;-49
2022/04/25 04:13:47;;;;;;;26.98;7.95;;;;;;;17.45;58.52;98993.25;5111539;28;20016;-48
2022/04/25 04:16:13;;;;;;;21.40;8.25;;;;;;;17.50;57.83;98984.41;5111620;28;20459;-47
2022/04/25 04:18:39;;;;;;;15.77;7.57;;;;;;;17.64;57.92;98982.78;5112250;28;20027;-49
2022/04/25 04:21:05;;;;;;;19.35;7.63;;;;;;;17.81;56.89;98979.84;5111617;28;20436;-47
2022/04/25 04:23:30;;;;;;;17.75;7.65;;;;;;;17.89;56.99;98978.53;5110508;28;20062;-49
2022/04/25 04:25:55;;;;;;;22.85;7.60;;;;;;;17.92;55.98;98976.09;5111246;28;20448;-47
2022/04/25 04:28:21;;;;;;;20.77;7.22;;;;;;;18.22;55.25;98962.84;5112007;28;20443;-48
2022/04/25 04:30:46;;;;;;;18.67;7.10;;;;;;;18.01;55.69;98948.63;5111629;28;20026;-47
2022/04/25 04:33:12;;;;;;;18.02;6.60;;;;;;;18.03;55.92;98949.16;5111975;28;20039;-47
2022/04/25 04:38:21;;;;;;;16.20;6.68;;;;;;;17.92;56.16;98945.69;5110562;28;20146;-48
2022/04/25 04:40:47;;;;;;;22.73;6.95;;;;;;;18.28;55.08;98938.34;5111296;28;20023;-47
2022/04/25 04:43:12;;;;;;;19.33;6.80;;;;;;;18.42;54.12;98946.66;5111387;28;20034;-47
2022/04/25 04:45:38;;;;;;;17.92;6.45;;;;;;;18.64;53.44;98940.94;5111274;28;20015;-46
2022/04/25 04:48:04;;;;;;;18.58;6.85;;;;;;;18.76;53.42;98946.78;5111098;28;20499;-47
2022/04/25 04:50:29;;;;;;;21.70;6.70;;;;;;;18.88;53.65;98951.06;5093130;28;20015;-47
2022/04/25 04:52:59;;;;;;;22.60;7.90;;;;;;;18.86;53.31;98945.16;5090960;28;20043;-48
2022/04/25 04:55:26;;;;;;;18.73;7.63;;;;;;;18.44;54.23;98949.06;5089936;28;20026;-47
2022/04/25 04:57:52;;;;;;;25.92;8.90;;;;;;;18.65;53.64;98950.59;5089903;28;20032;-48
2022/04/25 05:00:18;;;;;;;27.05;8.40;;;;;;;18.92;52.80;98949.44;5090519;28;20027;-50
2022/04/25 05:02:45;;;;;;;22.45;7.43;;;;;;;18.91;52.88;98943.25;5090671;28;20387;-48
2022/04/25 05:05:12;;;;;;;21.42;7.68;;;;;;;19.07;52.77;98938.56;5089432;28;20488;-52
2022/04/25 05:07:38;;;;;;;18.10;7.60;;;;;;;19.26;52.16;98932.53;5088146;28;20024;-51
2022/04/25 05:10:06;;;;;;;28.67;7.93;;;;;;;19.11;52.52;98945.03;5088372;28;20035;-51
2022/04/25 05:12:43;;;;;;;20.98;7.68;;;;;;;19.29;52.53;98953.56;5088440;28;20024;-50
2022/04/25 05:15:09;;;;;;;19.85;7.00;;;;;;;19.22;52.42;98963.84;5088441;28;20024;-52
2022/04/25 05:17:34;;;;;;;20.30;6.57;;;;;;;19.84;51.63;98980.44;5088652;28;20020;-50
2022/04/25 05:19:59;;;;;;;16.98;6.63;;;;;;;20.30;50.84;98986.19;5088344;28;20024;-50
2022/04/25 05:22:25;;;;;;;17.77;6.80;;;;;;;20.89;49.60;98991.50;5088457;28;20022;-51
2022/04/25 05:24:51;;;;;;;20.33;7.00;;;;;;;21.24;47.92;98978.59;5088119;28;20348;-52
2022/04/25 05:27:17;;;;;;;18.23;6.63;;;;;;;21.70;47.10;98977.94;5088400;28;20032;-50
2022/04/25 05:29:43;;;;;;;21.02;6.32;;;;;;;21.88;45.82;98983.63;5089337;28;20035;-52
2022/04/25 05:32:08;;;;;;;19.55;6.80;;;;;;;22.21;45.59;99003.34;5091059;28;20069;-49
2022/04/25 05:34:34;;;;;;;16.80;6.10;;;;;;;22.65;44.65;99019.06;5092224;28;20020;-48
2022/04/25 05:36:59;;;;;;;15.63;6.18;;;;;;;22.98;43.76;99023.59;5094504;28;20430;-49
2022/04/25 05:39:24;;;;;;;19.27;6.63;;;;;;;23.29;43.55;99031.13;5094183;28;20024;-48
2022/04/25 05:41:50;;;;;;;18.83;5.93;;;;;;;23.37;43.08;99035.81;5093220;28;20016;-48
2022/04/25 05:44:15;;;;;;;17.08;6.32;;;;;;;23.25;42.85;99043.69;5112597;28;20101;-49
2022/04/25 05:46:41;;;;;;;13.85;6.13;;;;;;;23.55;42.30;99047.63;5114118;28;20073;-47
2022/04/25 05:51:59;;;;;;;20.50;6.38;;;;;;;23.59;42.23;99063.03;5113889;28;20550;-48
2022/04/25 05:54:26;;;;;;;19.10;5.57;;;;;;;23.98;41.31;99052.63;5113385;28;20026;-47
2022/04/25 05:56:51;;;;;;;17.23;5.47;;;;;;;23.55;41.66;99050.34;5113778;28;20019;-47
2022/04/25 05:59:17;;;;;;;19.38;5.45;;;;;;;23.22;42.09;99058.66;5113477;28;20491;-50
2022/04/25 06:01:42;;;;;;;12.85;5.55;;;;;;;23.13;42.78;99050.44;5113315;28;20416;-48
2022/04/25 06:04:08;;;;;;;15.13;5.28;;;;;;;23.56;42.16;99043.81;5112892;28;20039;-48
2022/04/25 06:06:33;;;;;;;16.10;5.90;;;;;;;24.25;41.30;99046.25;5113578;28;20028;-47
2022/04/25 06:08:59;;;;;;;12.02;5.70;;;;;;;24.79;39.97;99040.78;5112923;28;20028;-47
2022/04/25 06:11:24;;;;;;;17.25;5.93;;;;;;;25.01;39.33;99047.25;5112629;28;20016;-48
2022/04/25 06:13:50;;;;;;;18.58;6.70;;;;;;;25.51;38.46;99035.97;5112116;28;20403;-48
2022/04/25 06:16:16;;;;;;;17.55;5.82;;;;;;;25.30;39.15;99041.22;5112535;28;20026;-48
2022/04/25 06:18:41;;;;;;;16.40;5.65;;;;;;;25.97;37.59;99042.72;5112577;28;20106;-48
2022/04/25 06:21:07;;;;;;;14.20;5.65;;;;;;;26.42;36.20;99033.31;5112451;28;20030;-48
2022/04/25 06:23:32;;;;;;;19.20;5.38;;;;;;;26.50;36.51;99041.47;5111790;28;20584;-50
2022/04/25 06:25:58;;;;;;;15.02;6.20;;;;;;;26.57;36.53;99034.69;5112291;28;20046;-51
2022/04/25 06:28:26;;;;;;;19.42;7.90;;;;;;;26.40;36.10;99036.34;5112097;28;20023;-48
2022/04/25 06:30:52;;;;;;;15.20;5.50;;;;;;;26.44;35.69;99031.84;5112113;28;20031;-48
2022/04/25 06:33:18;;;;;;;17.80;4.82;;;;;;;25.53;37.23;99025.56;5111709;28;20015;-48
2022/04/25 06:35:44;;;;;;;16.83;5.30;;;;;;;26.19;35.96;99010.91;5111572;28;20488;-49
2022/04/25 06:38:10;;;;;;;21.98;5.35;;;;;;;26.40;36.01;99014.53;5112100;28;20395;-48
2022/04/25 06:40:37;;;;;;;13.98;5.97;;;;;;;26.26;36.33;99019.41;5111790;28;20024;-48
2022/04/25 06:43:03;;;;;;;15.60;5.18;;;;;;;27.00;34.22;99031.78;5112022;28;20031;-48
2022/04/25 06:45:29;;;;;;;18.48;5.15;;;;;;;27.41;33.72;99022.06;5110546;28;20024;-48
2022/04/25 06:47:54;;;;;;;14.68;5.65;;;;;;;27.37;34.36;99018.41;5111554;28;20093;-48
2022/04/25 06:50:20;;;;;;;16.10;5.20;;;;;;;27.47;33.89;99025.38;5111516;28;20103;-49
2022/04/25 06:52:46;;;;;;;16.60;4.95;;;;;;;27.55;33.88;99019.06;5111358;28;20110;-49
2022/04/25 06:55:11;;;;;;;18.42;5.60;;;;;;;27.54;33.71;99025.66;5107666;28;20016;-51
2022/04/25 06:57:37;;;;;;;22.17;6.45;;;;;;;27.86;33.32;99028.75;5091064;28;20182;-49
2022/04/25 07:00:11;;;;;;;15.60;5.50;;;;;;;28.23;32.85;99026.94;5102857;28;20030;-48
2022/04/25 07:02:37;;;;;;;16.65;5.05;;;;;;;28.65;31.80;99023.25;5096168;28;20455;-49
2022/04/25 07:05:06;;;;;;;12.25;4.10;;;;;;;28.72;34.01;99034.44;5091027;28;20058;-51
2022/04/25 07:07:32;;;;;;;13.73;4.57;;;;;;;28.79;32.56;99025.69;5091109;28;20494;-51
2022/04/25 07:09:58;;;;;;;15.63;4.50;;;;;;;29.50;30.98;99015.31;5091146;28;20102;-38
2022/04/25 07:12:23;;;;;;;18.30;4.90;;;;;;;29.26;30.63;99029.88;5090914;28;20120;-38
2022/04/25 07:14:49;;;;;;;15.68;4.68;;;;;;;28.19;31.69;99017.81;5091655;28;20055;-36
2022/04/25 07:17:15;;;;;;;14.30;4.55;;;;;;;28.64;31.65;99027.94;5094752;28;20387;-37
2022/04/25 07:19:41;;;;;;;17.98;4.68;;;;;;;28.19;32.99;99017.03;5112217;28;20027;-38
2022/04/25 07:30:23;;;;;;;20.13;4.50;;;;;;;28.80;30.52;99019.06;5110774;28;20078;-38
2022/04/25 07:32:48;;;;;;;11.55;4.40;;;;;;;28.96;30.52;99019.97;5111472;28;20047;-37
2022/04/25 07:35:14;;;;;;;16.40;4.75;;;;;;;28.97;30.90;99018.03;5110637;28;20024;-38
2022/04/25 07:37:40;;;;;;;14.82;4.43;;;;;;;29.17;30.65;99019.06;5111096;28;20042;-37
2022/04/25 07:40:08;;;;;;;15.90;4.63;;;;;;;29.80;30.05;99016.59;5111879;28;20035;-37
2022/04/25 07:42:34;;;;;;;16.15;4.03;;;;;;;30.34;29.00;99011.75;5111261;28;20027;-38
2022/04/25 07:45:00;;;;;;;13.20;4.63;;;;;;;30.47;28.90;98996.00;5111343;28;20036;-38
2022/04/25 07:47:26;;;;;;;16.33;4.70;;;;;;;29.78;29.62;98990.69;5111233;28;20026;-38
2022/04/25 07:49:51;;;;;;;17.67;4.30;;;;;;;29.51;29.49;98990.31;5111265;28;20024;-38
2022/04/25 07:52:17;;;;;;;20.77;4.40;;;;;;;30.05;29.27;98983.56;5111109;28;20027;-38
2022/04/25 07:54:43;;;;;;;13.48;4.55;;;;;;;29.11;30.29;98995.75;5111215;28;20031;-38
2022/04/25 07:57:08;;;;;;;12.45;4.40;;;;;;;29.94;29.77;98990.72;5111197;28;20027;-38
2022/04/25 07:59:34;;;;;;;35.15;18.50;;;;;;;29.93;29.32;98989.09;5110857;28;20078;-38
2022/04/25 08:02:00;;;;;;;21.13;8.13;;;;;;;29.73;29.37;98983.50;5111341;28;20031;-37
2022/04/25 08:04:25;;;;;;;17.85;4.75;;;;;;;29.83;29.43;98982.19;5110882;28;20054;-38
2022/04/25 08:06:51;;;;;;;14.70;4.90;;;;;;;30.54;28.86;98979.69;5111160;28;20153;-37
2022/04/25 08:09:16;;;;;;;16.35;4.30;;;;;;;29.89;28.84;98980.81;5110710;28;20024;-38
2022/04/25 08:11:42;;;;;;;16.65;4.30;;;;;;;30.07;29.18;98973.03;5111003;28;20141;-37
2022/04/25 08:19:39;;;;;;;14.43;5.53;;;;;;;31.10;28.09;98964.91;5110565;28;20108;-37
2022/04/25 08:22:07;;;;;;;13.13;4.57;;;;;;;31.33;27.73;98964.97;5110912;28;20465;-37
2022/04/25 08:24:33;;;;;;;16.27;4.25;;;;;;;31.61;27.39;98958.50;5110510;28;20347;-37
2022/04/25 08:26:58;;;;;;;19.60;4.28;;;;;;;32.05;26.53;98956.19;5110778;28;20115;-37
2022/04/25 08:29:24;;;;;;;19.67;5.10;;;;;;;31.76;26.53;98950.16;5110324;28;20060;-37
2022/04/25 08:31:51;;;;;;;14.32;4.18;;;;;;;31.89;26.21;98947.22;5110560;28;20055;-37
2022/04/25 08:34:16;;;;;;;14.63;4.75;;;;;;;30.90;27.53;98948.41;5110438;28;20140;-37
2022/04/25 08:36:42;;;;;;;14.38;4.18;;;;;;;30.70;27.85;98942.03;5110685;28;20031;-38
2022/04/25 08:39:08;;;;;;;13.90;4.43;;;;;;;30.89;27.85;98937.75;5110519;28;20110;-38
2022/04/25 08:41:41;;;;;;;13.15;3.97;;;;;;;31.42;27.50;98937.28;5110129;28;20034;-37
2022/04/25 08:44:07;;;;;;;14.43;4.20;;;;;;;31.74;27.29;98935.97;5110143;28;20032;-38
2022/04/25 08:46:34;;;;;;;14.40;4.13;;;;;;;31.52;27.66;98920.22;5110451;28;20115;-38
2022/04/25 08:49:03;;;;;;;14.85;4.18;;;;;;;31.94;26.60;98922.94;5106618;28;20024;-38
2022/04/25 08:51:30;;;;;;;11.75;4.00;;;;;;;31.75;27.08;98926.53;5095866;28;20020;-38
2022/04/25 08:53:56;;;;;;;18.15;4.20;;;;;;;31.36;27.51;98925.78;5089836;28;20021;-36
2022/04/25 08:56:25;;;;;;;17.20;4.20;;;;;;;31.46;27.13;98927.16;5090144;28;20070;-38
2022/04/25 08:58:51;;;;;;;15.25;4.38;;;;;;;30.69;28.44;98932.22;5090770;28;20076;-36
2022/04/25 09:01:17;;;;;;;15.88;4.82;;;;;;;30.80;27.84;98926.94;5110585;28;20031;-37
2022/04/25 09:03:43;;;;;;;12.93;4.43;;;;;;;31.83;26.68;98921.19;5109210;28;20562;-36
2022/04/25 09:06:08;;;;;;;16.85;4.75;;;;;;;32.32;26.02;98914.94;5110131;28;20046;-38
2022/04/25 09:08:34;;;;;;;15.75;4.45;;;;;;;31.55;26.81;98919.50;5110057;28;20091;-36
2022/04/25 09:13:45;;;;;;;17.70;4.88;;;;;;;31.66;27.36;98914.19;5113875;28;20025;-37
2022/04/25 09:16:14;;;;;;;11.57;4.30;;;;;;;31.99;27.00;98908.09;5114206;28;20030;-37
2022/04/25 09:18:40;;;;;;;15.63;4.63;;;;;;;32.33;26.86;98906.31;5114137;28;20031;-36
2022/04/25 09:21:06;;;;;;;16.13;4.22;;;;;;;33.02;25.38;98899.81;5113771;28;20034;-37
2022/04/25 09:23:32;;;;;;;14.63;3.95;;;;;;;33.02;25.49;98899.81;5113588;28;20016;-37
2022/04/25 09:26:07;;;;;;;14.70;4.07;;;;;;;32.63;25.81;98896.53;5113436;28;20482;-37
2022/04/25 09:28:34;;;;;;;15.30;4.65;;;;;;;32.60;26.09;98892.59;5113676;28;20038;-37
2022/04/25 09:31:01;;;;;;;19.13;4.43;;;;;;;31.76;27.19;98883.38;5113290;28;20030;-37
2022/04/25 09:33:27;;;;;;;16.20;4.40;;;;;;;31.83;26.44;98879.94;5113872;28;20359;-37
2022/04/25 09:35:54;;;;;;;14.55;3.88;;;;;;;32.25;26.39;98876.31;5113479;28;20020;-37
2022/04/25 09:38:31;;;;;;;12.75;4.65;;;;;;;33.14;25.48;98874.00;5113775;28;20058;-38
2022/04/25 09:40:56;;;;;;;13.43;4.22;;;;;;;32.72;25.52;98875.81;5113916;28;20027;-37
2022/04/25 09:43:29;;;;;;;16.77;4.22;;;;;;;32.80;25.28;98875.94;5113602;28;20015;-38
2022/04/25 09:46:06;;;;;;;15.80;4.07;;;;;;;33.36;25.04;98877.81;5113338;28;20100;-38
2022/04/25 09:48:32;;;;;;;12.38;4.20;;;;;;;32.95;24.80;98876.91;5113602;28;20023;-37
2022/04/25 09:51:05;;;;;;;14.38;4.20;;;;;;;32.44;25.86;98870.69;5113391;28;20254;-37
2022/04/25 09:53:50;;;;;;;13.98;4.00;;;;;;;32.25;29.66;98868.88;5112875;28;20673;-38
2022/04/25 09:56:18;;;;;;;10.38;3.90;;;;;;;31.66;27.74;98864.69;5112496;28;20075;-53
2022/04/25 09:58:44;;;;;;;18.98;4.57;;;;;;;31.60;26.83;98855.97;5113177;28;20141;-53
2022/04/25 10:01:14;;;;;;;14.35;4.70;;;;;;;31.33;27.47;98860.56;5113023;28;20031;-52
2022/04/25 10:03:41;;;;;;;11.65;4.35;;;;;;;30.90;27.25;98835.00;5112639;28;20023;-53
2022/04/25 10:06:08;;;;;;;10.13;3.75;;;;;;;31.48;26.62;98842.41;5112990;28;20047;-49
2022/04/25 10:08:35;;;;;;;15.38;4.07;;;;;;;31.84;25.93;98846.56;5112880;28;20026;-51
2022/04/25 10:11:03;;;;;;;16.20;4.07;;;;;;;31.95;25.93;98842.03;5113197;28;20023;-51
2022/04/25 10:13:30;;;;;;;12.02;4.10;;;;;;;32.11;26.12;98844.66;5113092;28;20497;-53
2022/04/25 10:15:56;;;;;;;13.73;4.43;;;;;;;32.73;25.66;98849.09;5112972;27;20039;-52
2022/04/25 10:18:23;;;;;;;14.65;4.40;;;;;;;30.60;28.06;98849.25;5112826;28;20028;-51
2022/04/25 10:20:49;;;;;;;14.20;4.28;;;;;;;31.20;27.57;98837.94;5111485;28;20025;-52
2022/04/25 10:23:16;;;;;;;16.63;4.03;;;;;;;32.10;26.65;98836.75;5112890;28;20028;-51
2022/04/25 10:25:50;;;;;;;16.45;4.70;;;;;;;32.43;25.93;98843.56;5112421;28;20023;-52
2022/04/25 10:28:20;;;;;;;15.45;3.90;;;;;;;31.08;27.02;98843.59;5112444;28;20031;-50
2022/04/25 10:30:48;;;;;;;15.07;3.97;;;;;;;30.05;28.58;98848.38;5112540;28;20075;-51
2022/04/25 10:33:21;;;;;;;53.80;39.92;;;;;;;29.73;29.71;98837.41;5112570;28;20457;-51
2022/04/25 10:35:49;;;;;;;16.48;7.55;;;;;;;29.87;29.62;98836.97;5112097;28;20023;-51
2022/04/25 10:44:19;;;;;;;14.80;4.30;;;;;;;31.77;28.01;98832.69;5110977;28;20546;-52
2022/04/25 10:47:03;;;;;;;14.00;4.20;;;;;;;30.92;28.43;98825.25;5112031;28;20100;-52
2022/04/25 10:49:42;;;;;;;15.48;4.22;;;;;;;31.04;28.31;98824.28;5110955;28;20039;-38
2022/04/25 10:52:53;;;;;;;16.05;4.43;;;;;;;31.61;27.01;98821.03;5111170;28;20055;-52
2022/04/25 10:55:38;;;;;;;14.38;4.75;;;;;;;31.11;27.75;98821.69;5110162;28;20028;-51
2022/04/25 10:58:04;;;;;;;9.93;4.30;;;;;;;30.24;29.00;98817.47;5110416;28;20035;-52
2022/04/25 11:00:41;;;;;;;15.07;4.18;;;;;;;30.13;29.36;98814.47;5102464;28;20126;-51
2022/04/25 11:03:19;;;;;;;14.45;4.30;;;;;;;30.73;28.80;98816.97;5111380;28;20032;-52
2022/04/25 11:05:50;;;;;;;15.77;4.45;;;;;;;31.72;27.65;98822.81;5110526;28;20052;-51
2022/04/25 11:08:18;;;;;;;15.63;4.68;;;;;;;31.50;27.38;98820.84;5110878;28;20031;-52
2022/04/25 11:10:48;;;;;;;17.42;4.45;;;;;;;30.79;28.47;98815.53;5110569;28;20043;-52
2022/04/25 11:13:18;;;;;;;13.95;4.50;;;;;;;30.77;28.38;98810.41;5110503;28;20050;-52
2022/04/25 11:15:49;;;;;;;18.42;4.78;;;;;;;31.49;27.89;98814.56;5110466;28;20032;-52
2022/04/25 11:18:34;;;;;;;13.70;4.00;;;;;;;31.83;27.88;98808.41;5108755;28;20468;-50
2022/04/25 11:21:07;;;;;;;16.95;4.05;;;;;;;31.96;25.73;98818.84;5109285;28;20054;-52
2022/04/25 11:23:35;;;;;;;11.23;3.92;;;;;;;31.60;27.03;98811.97;5108978;28;20076;-51
2022/04/25 11:26:05;;;;;;;15.32;4.03;;;;;;;31.79;25.29;98808.34;5109356;28;20023;-52
2022/04/25 11:28:33;;;;;;;17.77;4.18;;;;;;;32.39;25.03;98807.72;5089190;28;20035;-51
2022/04/25 11:31:13;;;;;;;38.22;25.17;;;;;;;33.21;24.75;98805.19;5097858;28;20103;-52
2022/04/25 11:33:46;;;;;;;16.67;6.53;;;;;;;33.95;23.69;98800.75;5109846;28;20027;-52
2022/04/25 11:36:13;;;;;;;15.18;4.53;;;;;;;33.95;23.61;98802.69;5110103;28;20019;-52
2022/04/25 11:41:23;;;;;;;19.70;4.30;;;;;;;33.79;23.21;98789.19;5110678;28;20043;-51
2022/04/25 11:43:49;;;;;;;14.40;4.28;;;;;;;34.11;23.25;98788.63;5109693;28;20027;-52
2022/04/25 11:46:16;;;;;;;15.63;4.00;;;;;;;34.08;23.39;98792.91;5110125;28;20092;-52
2022/04/25 11:48:42;;;;;;;14.02;3.63;;;;;;;33.69;23.63;98785.94;5109575;28;20698;-52
2022/04/25 11:51:08;;;;;;;13.30;3.92;;;;;;;33.88;23.71;98790.44;5110216;28;20096;-52
2022/04/25 11:53:34;;;;;;;18.52;4.75;;;;;;;33.92;23.04;98789.66;5109743;28;20024;-52
2022/04/25 11:56:13;;;;;;;22.58;4.50;;;;;;;33.81;23.16;98781.31;5110216;28;20401;-51
2022/04/25 11:58:39;;;;;;;9.95;3.78;;;;;;;34.32;22.84;98785.22;5110046;28;20141;-52
2022/04/25 12:01:04;;;;;;;20.33;4.10;;;;;;;34.41;22.54;98777.38;5110233;28;20059;-49